createdAt,value
2022-09-01T00:04:05.028Z,4.13
2022-09-01T00:14:30.085Z,5.70
2022-09-01T00:24:32.923Z,4.47
2022-09-01T00:34:35.371Z,3.53
2022-09-01T00:44:39.298Z,4.07
2022-09-01T00:54:46.269Z,3.30
2022-09-01T01:04:48.757Z,4.90
2022-09-01T01:14:51.584Z,5.12
2022-09-01T01:24:53.906Z,4.03
2022-09-01T01:34:58.178Z,6.82
2022-09-01T01:55:05.219Z,6.85
2022-09-01T02:05:08.638Z,7.07
2022-09-01T02:15:13.309Z,5.73
2022-09-01T02:35:19.567Z,4.45
2022-09-01T02:45:22.441Z,5.43
2022-09-01T02:55:25.131Z,4.93
2022-09-01T03:05:30.447Z,3.92
2022-09-01T03:15:34.153Z,5.05
2022-09-01T03:25:37.160Z,4.33
2022-09-01T03:35:39.506Z,4.37
2022-09-01T03:45:42.321Z,3.47
2022-09-01T03:55:47.513Z,4.90
2022-09-01T04:05:51.845Z,4.93
2022-09-01T04:15:55.304Z,5.03
2022-09-01T04:26:09.376Z,4.40
2022-09-01T04:36:20.003Z,3.47
2022-09-01T04:46:24.087Z,4.35
2022-09-01T04:56:27.139Z,3.87
2022-09-01T05:06:30.251Z,3.10
2022-09-01T05:16:36.848Z,5.93
2022-09-01T05:26:41.599Z,4.35
2022-09-01T05:36:46.464Z,4.32
2022-09-01T05:47:06.647Z,6.12
2022-09-01T06:07:45.366Z,4.70
2022-09-01T06:17:50.228Z,6.03
2022-09-01T06:28:06.542Z,6.72
2022-09-01T06:38:12.576Z,5.65
2022-09-01T06:48:18.182Z,7.22
2022-09-01T06:58:22.742Z,10.00
2022-09-01T07:08:28.178Z,8.27
2022-09-01T07:18:34.778Z,7.57
2022-09-01T07:28:38.416Z,7.20
2022-09-01T08:00:33.765Z,8.25
2022-09-01T08:10:45.834Z,7.47
2022-09-01T08:20:50.924Z,6.12
2022-09-01T08:30:56.836Z,4.18
2022-09-01T08:52:02.491Z,4.25
2022-09-01T09:02:36.463Z,4.62
2022-09-01T09:13:04.252Z,3.62
2022-09-01T09:24:38.634Z,5.57
2022-09-01T09:34:52.068Z,5.55
2022-09-01T09:45:29.326Z,3.40
2022-09-01T09:55:39.254Z,4.60
2022-09-01T10:05:50.001Z,3.03
2022-09-01T10:16:11.297Z,3.45
2022-09-01T10:26:25.680Z,3.12
2022-09-01T10:36:42.196Z,2.78
2022-09-01T10:46:50.217Z,3.22
2022-09-01T10:57:11.992Z,3.10
2022-09-01T11:18:10.664Z,2.83
2022-09-01T11:28:25.913Z,4.18
2022-09-01T11:39:22.681Z,3.45
2022-09-01T11:49:37.774Z,2.60
2022-09-01T11:59:49.578Z,2.75
2022-09-01T12:09:57.417Z,3.40
2022-09-01T12:20:29.193Z,2.20
2022-09-01T12:30:47.594Z,4.32
2022-09-01T12:40:57.578Z,2.22
2022-09-01T12:51:05.013Z,2.58
2022-09-01T13:01:16.167Z,2.55
2022-09-01T13:11:23.715Z,2.40
2022-09-01T13:21:31.676Z,4.05
2022-09-01T13:32:16.011Z,2.60
2022-09-01T13:42:04.484Z,3.30
2022-09-01T13:52:12.898Z,2.20
2022-09-01T14:02:19.421Z,2.53
2022-09-01T14:12:23.226Z,1.87
2022-09-01T14:22:29.385Z,2.42
2022-09-01T14:32:32.012Z,2.08
2022-09-01T14:42:37.733Z,2.12
2022-09-01T14:52:40.609Z,2.10
2022-09-01T15:02:47.645Z,1.27
2022-09-01T15:12:51.611Z,2.15
2022-09-01T15:22:55.214Z,1.87
2022-09-01T15:32:58.653Z,3.60
2022-09-01T15:43:02.271Z,1.73
2022-09-01T15:53:09.362Z,1.87
2022-09-01T16:03:13.604Z,2.28
2022-09-01T16:13:16.327Z,3.05
2022-09-01T16:23:22.610Z,1.60
2022-09-01T16:33:25.785Z,1.60
2022-09-01T16:44:06.942Z,1.40
2022-09-01T16:54:24.840Z,2.28
2022-09-01T17:04:43.753Z,1.92
2022-09-01T17:14:56.021Z,1.23
2022-09-01T17:25:08.455Z,1.85
2022-09-01T17:35:24.132Z,2.10
2022-09-01T17:45:55.693Z,1.62
2022-09-01T17:56:10.116Z,2.40
2022-09-01T18:06:56.092Z,1.70
2022-09-01T18:17:04.313Z,2.95
2022-09-01T18:27:08.639Z,1.98
2022-09-01T18:37:18.394Z,2.28
2022-09-01T18:47:39.408Z,2.00
2022-09-01T18:58:06.918Z,1.77
2022-09-01T19:08:35.673Z,2.12
2022-09-01T19:18:44.975Z,3.33
2022-09-01T19:28:50.831Z,1.92
2022-09-01T19:38:54.653Z,1.85
2022-09-01T19:59:38.507Z,2.60
2022-09-01T20:09:53.098Z,1.90
2022-09-01T20:20:10.583Z,2.50
2022-09-01T20:30:26.033Z,2.15
2022-09-01T20:40:37.423Z,2.20
2022-09-01T20:50:43.459Z,3.30
2022-09-01T21:00:54.367Z,3.70
2022-09-01T21:11:29.220Z,4.03
2022-09-01T21:21:43.301Z,3.12
2022-09-01T21:31:47.318Z,4.10
2022-09-01T21:41:50.082Z,4.37
2022-09-01T21:58:33.487Z,3.62
2022-09-01T22:08:36.094Z,3.00
2022-09-01T22:18:38.995Z,3.33
2022-09-01T22:28:42.237Z,3.40
2022-09-01T22:38:44.904Z,4.93
2022-09-01T22:48:47.821Z,4.78
2022-09-01T22:58:52.157Z,3.75
2022-09-01T23:08:56.270Z,3.62
2022-09-01T23:18:59.562Z,3.92
2022-09-01T23:29:03.011Z,3.35
2022-09-01T23:39:06.304Z,5.23
2022-09-01T23:49:09.989Z,3.25
2022-09-01T23:59:12.518Z,3.63
